FLIGHT INFORMATION
KLM Royal Dutch Airlines

KLM691

At Arrival Gate

EHAM
 CYYZ
DATE: 2020-05-22
GATE: F7
GATE DEPARTURE: 13:25
TAKEOFF: 13:38
DATE: 2020-05-22
GATE:  -
LANDING: 20:51
GATE ARRIVAL: 20:59
FLIGHT DATA
Crew: TOM LANDRY
Speed: 506 kts Altitude: 39000 ft
Stage Length: 3234 nm
Route: EHAM EH001 EH051 EH009 EH028 BERGI AMGOD SUPUR MIMVA EMLON LEGRO NALAX LIBSO ODNEK USEKA ERKIT TLA AMLAD SUNOT 5820N 5830N 5840N 5750N HOIST YBC ML DICEN LIVBA VIDGO KISUK LETAK TADMO VIBLI IMEBA LEPUX DUGDA CALVY CYYZ
Block Time: 7.6 Flight Time: 7.2
Fuel Used: 145601 LB
TRACK DATA
50000 FT1000 KTAltitudeSpeed
AIRCRAFT INFORMATION
Aircraft Type: B744
Registration: PH-BFN
SELCAL: KLJP MSN/LN: 26372 / 969
Operator: KLM ROYAL DUTCH AIRLINES
Flights: 3 Block Time: 33.6 Flight Time: 32.8
Fuel Used: 599807 LB
  • DEPARTURE INFORMATION
    Date: 2020-05-22
    Airport: EHAM
    Gate: F7
    Gate Departure: 13:25
    Takeoff: 13:38
    ARRIVAL INFORMATION
    Date: 2020-05-22
    Airport: CYYZ
    Gate:  -
    Landing: 20:51
    Gate Arrival: 20:59
  • FLIGHT DATA
    Crew: TOM LANDRY
    Speed: 506 kts Altitude: 39000 ft
    Stage Length: 1746 nm
    Route: EHAM EH001 EH051 EH009 EH028 BERGI AMGOD SUPUR MIMVA EMLON LEGRO NALAX LIBSO ODNEK USEKA ERKIT TLA AMLAD SUNOT 5820N 5830N 5840N 5750N HOIST YBC ML DICEN LIVBA VIDGO KISUK LETAK TADMO VIBLI IMEBA LEPUX DUGDA CALVY CYYZ
    Block Time: 7.6 Flight Time: 7.2
    Fuel Used: 145601 LB
  • AIRCRAFT INFORMATION
    Aircraft Type: B744
    Registration: PH-BFN
    SELCAL: KLJP MSN/LN: 26372 / 969
    Operator: KLM Royal Dutch Airlines
    Flights: 3 Block Time: 33.6 Flight Time: 32.8
    Fuel Used: 599807 LB

DATALINK LOG | Newest first | Current as of: 2020-06-02 10:14:02
LABEL ID SEQUENCE CONTENT Dn/Up
QD535720:59 40.7▼ Dn
QC455020:51▼ Dn
2U2608CYYZ 222300Z 14007KT 15SM BKN060 21/09 A2999 RMK SC7 SLP158 DENSITY ALT 1300FT▲ Up
2S2027CYYZ▼ Dn
UM793811CLX 1638 200522 CYQX CLRNCE 521 KLM691 CLEARED TO CYYZ VIA SUNOT 58N020W 58N030W 58N040W 57N050W HOIST MNTN F360 M084 KLJP.▲ Up
UM253811REQUESTING OCEANIC CLRNC CT FQBE CS KLM691 EP SUNOT FL 340 ETA 20:55 SPD 290▼ Dn
2U5323CYYZ 221500Z 36003KT 330V050 15SM FEW260 22/10 A3009 RMK CI1 CI TR SLP190 DENSITY ALT 1400FT▲ Up
2S3507CYYZ▼ Dn
QB195213:38▼ Dn
QA074013:25 186.6▼ Dn
2U1703EHAM 221425Z 23021KT 200V260 9999 FEW023 20/12 Q1016 NOSIG▲ Up
2S5933EHAM▼ Dn
A35337CLEARED TO CYYZ VIA BERGI L602 MIMVA L602 EMLON L602 NALAX L46 ODNEK N110 ERKIT L602 TLA AMLAD SUNOT NATA HOIST N600A YBC J555 ML J553 DICEN Q848 LETAK IMEBA5. SQUAWK 7665.▲ Up
B35327EHAM CYYZ KLM691 PHBFN M ▼ Dn
Q04318[LINK ACK]▲ Up
Q04318[LINK TEST]▼ Dn


AIRCRAFT HISTORY
FLIGHT DATE FLIGHT NUMBER ORIGIN DESTINATION ROUTE BLOCK TIME FLIGHT TIME FUEL USED (LB) PILOT
2020-05-22KLM691EHAM CYYZ EHAM EH001 EH051 EH009 EH028 BERGI AMGOD SUPUR MIMVA EMLON LEGRO NALAX LIBSO ODNEK USEKA ERKIT TLA AMLAD SUNOT 5820N 5830N 5840N 5750N HOIST YBC ML DICEN LIVBA VIDGO KISUK LETAK TADMO VIBLI IMEBA LEPUX DUGDA CALVY CYYZ7.67.2145601Tom Landry
2020-01-23KLM755SEQM EHAM SEQM ARNOK BOKAN MER ISKED ESARO MUGBU GIR BOG BUV KOMBO PIE CUC ENPUT STB IROSA BURGA MADNO DOLPO CRO ALCOT PJG SINDA REVOK LUCAS ACORA SILVA ILMET MILOK RAYAS RAFEE ANNER PORQE DANDE PJM MNOLO NEYDU OBIKE RKDIA 3150N 3940N 4530N 5020N ADARA LEKVA SHA LIFFY IDEXA GINIS NATKO LYNAS ROLEX MALUD WAL ASMIM BARTN SONEX DENBY DESIG ELNOD MAMUL EDUXO LAMIX ROGAG AMVEL DOLAS ENITO DIBAL BUKUT LAMSO EHAM1110.6226170Chris Makris
2020-01-22KLM755EHAM SEQM EHAM IDRID NOGRO LUSOR RINIS IDESI SABER LIVSU MANGO BRASO WESUL EVNAS LAM UGBET CPT GAJIT TOFED SUNFI GAPLI NERTU BEDRA 4820N 4430N 3940N 3250N KAVAX ZABOR SOCCO YIYYO SCAPA BOSCO BEXER PITOS GUDEL KERLI ONDAS ABA NOREX EJA MQU ARNOK SEQM12.111.9228036Chris Makris